Blyn, Washington
Current Conditions -  °F | °C
As of 3:53 AM on Sunday 23 Nov 2014 (Local Time) from KCLM Reporting Station
Light Rain Light Rain  
Wind Chill: 45°   Ceiling: 6000
Heat Index: 45°   Visibility: 10mi
Dew Point: 41°   Wind: 3mph
Humidity: 86%   Direction: NA
Pressure: 30"   Gusts: NA
Location:  48.0015°N, 123.09°W
Report Text: KCLM 231153Z AUTO VRB03KT 10SM -RA BKN060 OVC080 07/05 A3000 RMK AO2 RAE36B53 SLP161 P0000 60005 70017 T00720050 10089 20061 58028 $
Loading
Personal Weather Stations






























Interactive Weather Map New forecast layout! Learn more

10-Day Weather Forecast

Advertisements
Track Severe Weather on mobile